Time;durP1;ratioP1;P1;durP2;ratioP2;P2;SDS_P1;SDS_P2;PMS_P1;PMS_P2;Temp;Humidity;BMP_temperature;BMP_pressure;BME280_temperature;BME280_humidity;BME280_pressure;Samples;Min_cycle;Max_cycle;Signal;HPM_P1;HPM_P2
2021/05/18 00:01:02;;;;;;;3.75;2.00;;;;;;;;;;5037892;28;20308;-85
2021/05/18 00:03:28;;;;;;;3.58;1.90;;;;;;;;;;5037830;28;20087;-84
2021/05/18 00:05:55;;;;;;;3.67;2.08;;;;;;;;;;5037311;28;20032;-85
2021/05/18 00:08:23;;;;;;;2.63;1.90;;;;;;;;;;5037243;28;20116;-85
2021/05/18 00:13:39;;;;;;;2.20;1.70;;;;;;;;;;5023376;28;20044;-85
2021/05/18 00:16:06;;;;;;;3.30;1.88;;;;;;;;;;5037469;28;20489;-85
2021/05/18 00:18:33;;;;;;;2.50;1.60;;;;;;;;;;5037608;28;20108;-85
2021/05/18 00:20:59;;;;;;;3.47;2.70;;;;;;;;;;5019979;28;20033;-85
2021/05/18 00:23:26;;;;;;;3.35;1.80;;;;;;;;;;5037302;28;20021;-85
2021/05/18 00:25:52;;;;;;;4.10;2.50;;;;;;;;;;5037400;28;20031;-86
2021/05/18 00:28:18;;;;;;;3.22;2.30;;;;;;;;;;5019670;28;20133;-87
2021/05/18 00:30:44;;;;;;;2.88;1.92;;;;;;;;;;5037445;28;20147;-86
2021/05/18 00:33:15;;;;;;;3.70;1.70;;;;;;;;;;5037533;28;20335;-86
2021/05/18 00:35:41;;;;;;;3.50;2.03;;;;;;;;;;5037325;28;20438;-85
2021/05/18 00:38:08;;;;;;;2.70;1.95;;;;;;;;;;5037357;28;20412;-84
2021/05/18 00:40:34;;;;;;;2.53;1.77;;;;;;;;;;5037186;28;20027;-85
2021/05/18 00:43:00;;;;;;;3.05;1.80;;;;;;;;;;5037123;28;20022;-86
2021/05/18 00:45:47;;;;;;;3.78;1.92;;;;;;;;;;5037543;28;20025;-86
2021/05/18 00:48:13;;;;;;;4.55;2.25;;;;;;;;;;5019642;28;20030;-85
2021/05/18 00:50:41;;;;;;;3.95;2.28;;;;;;;;;;5037176;28;20399;-87
2021/05/18 00:53:07;;;;;;;3.20;1.90;;;;;;;;;;5037156;28;20056;-89
2021/05/18 00:58:28;;;;;;;4.85;2.03;;;;;;;;;;5037401;28;20049;-86
2021/05/18 01:01:05;;;;;;;2.95;1.90;;;;;;;;;;5040988;28;20076;-86
2021/05/18 01:03:32;;;;;;;3.08;1.92;;;;;;;;;;5040796;28;20053;-86
2021/05/18 01:08:44;;;;;;;3.08;1.60;;;;;;;;;;5040993;28;20045;-86
2021/05/18 01:11:10;;;;;;;2.50;1.70;;;;;;;;;;5023595;28;20022;-86
2021/05/18 01:13:37;;;;;;;4.78;1.50;;;;;;;;;;5040769;28;20045;-86
2021/05/18 01:16:06;;;;;;;3.72;1.83;;;;;;;;;;5023254;28;20029;-87
2021/05/18 01:18:41;;;;;;;2.38;1.70;;;;;;;;;;5040618;28;20036;-87
2021/05/18 01:21:08;;;;;;;4.40;1.88;;;;;;;;;;5040607;28;20025;-86
2021/05/18 01:23:34;;;;;;;3.35;1.55;;;;;;;;;;5040613;28;20068;-85
2021/05/18 01:26:01;;;;;;;2.25;1.73;;;;;;;;;;5022938;28;20040;-86
2021/05/18 01:28:29;;;;;;;4.57;2.00;;;;;;;;;;5022748;28;20068;-86
2021/05/18 01:30:57;;;;;;;4.13;1.80;;;;;;;;;;5040461;28;20056;-87
2021/05/18 01:33:24;;;;;;;3.38;1.73;;;;;;;;;;5023007;28;20029;-86
2021/05/18 01:35:50;;;;;;;3.38;1.70;;;;;;;;;;5040186;28;20029;-87
2021/05/18 01:38:20;;;;;;;2.28;1.55;;;;;;;;;;5022590;28;20029;-86
2021/05/18 01:43:54;;;;;;;2.40;1.58;;;;;;;;;;4979795;28;20110;-86
2021/05/18 01:46:22;;;;;;;5.88;1.63;;;;;;;;;;4979435;28;20034;-86
2021/05/18 01:48:57;;;;;;;2.80;1.35;;;;;;;;;;4979390;28;20043;-86
2021/05/18 01:51:25;;;;;;;2.47;1.67;;;;;;;;;;4979642;28;20057;-85
2021/05/18 01:53:51;;;;;;;2.58;1.63;;;;;;;;;;4979171;28;20034;-85
2021/05/18 01:56:30;;;;;;;4.13;1.70;;;;;;;;;;4979405;28;20418;-87
2021/05/18 01:59:01;;;;;;;2.38;1.30;;;;;;;;;;4962754;28;20066;-85
2021/05/18 02:01:28;;;;;;;2.35;1.52;;;;;;;;;;4979240;28;20055;-86
2021/05/18 02:03:54;;;;;;;5.05;1.30;;;;;;;;;;4979227;28;20019;-86
2021/05/18 02:06:20;;;;;;;3.67;1.10;;;;;;;;;;4962971;28;20113;-87
2021/05/18 02:08:47;;;;;;;4.03;1.30;;;;;;;;;;4978954;28;20035;-86
2021/05/18 02:11:13;;;;;;;2.50;1.73;;;;;;;;;;4978750;28;20030;-87
2021/05/18 02:13:45;;;;;;;2.78;1.30;;;;;;;;;;4986160;28;20022;-86
2021/05/18 02:16:15;;;;;;;1.63;1.10;;;;;;;;;;5039356;28;20033;-85
2021/05/18 02:26:47;;;;;;;2.17;1.38;;;;;;;;;;4978712;28;20049;-84
2021/05/18 02:29:13;;;;;;;2.35;1.00;;;;;;;;;;4962057;28;20051;-84
2021/05/18 02:31:39;;;;;;;4.30;1.23;;;;;;;;;;4978626;28;20062;-85
2021/05/18 02:34:05;;;;;;;1.90;1.10;;;;;;;;;;4978669;28;20130;-86
2021/05/18 02:36:31;;;;;;;2.72;1.10;;;;;;;;;;4978388;28;20038;-86
2021/05/18 02:38:57;;;;;;;3.97;1.50;;;;;;;;;;4962387;28;20047;-86
2021/05/18 02:41:25;;;;;;;1.85;1.45;;;;;;;;;;4962293;28;20023;-86
2021/05/18 02:43:58;;;;;;;3.90;1.27;;;;;;;;;;4962455;28;20031;-86
2021/05/18 02:49:14;;;;;;;6.18;1.65;;;;;;;;;;4978505;28;20054;-87
2021/05/18 02:51:42;;;;;;;2.70;1.23;;;;;;;;;;4962351;28;20037;-88
2021/05/18 02:54:10;;;;;;;7.80;4.00;;;;;;;;;;4978384;28;20038;-89
2021/05/18 02:56:47;;;;;;;3.90;1.80;;;;;;;;;;4978182;28;20070;-87
2021/05/18 02:59:16;;;;;;;1.50;1.10;;;;;;;;;;5030604;28;20045;-87
2021/05/18 03:01:44;;;;;;;7.13;1.35;;;;;;;;;;5038546;28;20036;-85
2021/05/18 03:04:11;;;;;;;3.63;2.72;;;;;;;;;;5038856;28;20025;-88
2021/05/18 03:06:37;;;;;;;17.63;5.85;;;;;;;;;;5038948;28;20041;-87
2021/05/18 03:09:09;;;;;;;15.73;4.20;;;;;;;;;;5038630;28;20037;-87
2021/05/18 03:11:36;;;;;;;15.05;4.25;;;;;;;;;;5038616;28;20017;-87
2021/05/18 03:14:02;;;;;;;13.32;4.40;;;;;;;;;;5038421;28;20039;-87
2021/05/18 03:16:28;;;;;;;7.45;2.67;;;;;;;;;;5020939;28;20060;-87
2021/05/18 03:18:54;;;;;;;3.90;1.42;;;;;;;;;;5038397;28;20083;-88
2021/05/18 03:21:20;;;;;;;3.17;1.50;;;;;;;;;;5037667;28;20033;-86
2021/05/18 03:23:46;;;;;;;2.90;1.48;;;;;;;;;;5038248;28;20079;-86
2021/05/18 03:26:13;;;;;;;5.47;1.70;;;;;;;;;;5038316;28;20025;-85
2021/05/18 03:28:39;;;;;;;6.00;2.22;;;;;;;;;;5020683;28;20037;-86
2021/05/18 03:31:15;;;;;;;7.25;2.20;;;;;;;;;;5037920;28;20120;-84
2021/05/18 03:36:26;;;;;;;3.17;2.25;;;;;;;;;;5038037;28;20076;-84
2021/05/18 03:38:56;;;;;;;2.40;1.42;;;;;;;;;;5037717;28;20431;-84
2021/05/18 03:41:27;;;;;;;8.48;1.80;;;;;;;;;;5020487;28;20021;-84
2021/05/18 03:54:22;;;;;;;3.60;1.48;;;;;;;;;;5037371;28;20047;-77
2021/05/18 04:05:15;;;;;;;3.90;1.50;;;;;;;;;;5037170;28;20028;-76
2021/05/18 04:11:02;;;;;;;5.57;3.08;;;;;;;;;;5036980;28;20084;-76
2021/05/18 04:19:03;;;;;;;2.10;1.52;;;;;;;;;;5036911;28;20172;-76
2021/05/18 05:06:10;;;;;;;2.55;1.45;;;;;;;;;;4979601;28;20085;-76
2021/05/18 05:07:01;;;;;;;4.68;1.60;;;;;;;;;;5020052;28;20427;-76
2021/05/18 05:09:36;;;;;;;3.50;1.13;;;;;;;;;;5022284;28;20321;-76
2021/05/18 05:14:46;;;;;;;1.98;1.38;;;;;;;;;;5040070;28;20056;-76
2021/05/18 05:17:12;;;;;;;4.18;1.60;;;;;;;;;;5040112;28;20036;-76
2021/05/18 05:19:38;;;;;;;2.30;1.17;;;;;;;;;;5040063;28;20192;-76
2021/05/18 05:22:05;;;;;;;6.75;1.30;;;;;;;;;;5039931;28;20087;-76
2021/05/18 05:24:31;;;;;;;2.60;1.20;;;;;;;;;;5039641;28;20064;-76
2021/05/18 05:26:57;;;;;;;2.38;1.50;;;;;;;;;;5039769;28;20420;-76
2021/05/18 05:29:24;;;;;;;4.70;1.45;;;;;;;;;;5039753;28;20030;-76
2021/05/18 05:31:51;;;;;;;2.33;1.00;;;;;;;;;;5039648;28;20021;-76
2021/05/18 05:34:18;;;;;;;5.10;1.10;;;;;;;;;;5022133;28;20107;-76
2021/05/18 05:36:44;;;;;;;3.03;1.23;;;;;;;;;;5039579;28;20031;-76
2021/05/18 05:39:19;;;;;;;3.60;0.90;;;;;;;;;;5039465;28;20033;-76
2021/05/18 05:41:45;;;;;;;1.80;0.98;;;;;;;;;;5039483;28;20450;-76
2021/05/18 05:44:11;;;;;;;2.38;0.80;;;;;;;;;;5038641;28;20022;-76
2021/05/18 05:46:37;;;;;;;2.53;1.15;;;;;;;;;;5039347;28;20105;-76
2021/05/18 05:49:03;;;;;;;4.20;1.08;;;;;;;;;;5039482;28;20108;-76
2021/05/18 05:51:30;;;;;;;1.30;0.90;;;;;;;;;;5039340;28;20327;-76
2021/05/18 05:53:59;;;;;;;1.88;0.80;;;;;;;;;;5039408;28;20067;-76
2021/05/18 05:56:25;;;;;;;2.35;1.10;;;;;;;;;;5039368;28;20033;-76
2021/05/18 05:58:51;;;;;;;2.13;1.02;;;;;;;;;;5039345;28;20041;-76
2021/05/18 06:01:17;;;;;;;2.15;0.90;;;;;;;;;;5021635;28;20029;-76
2021/05/18 06:03:43;;;;;;;2.03;0.68;;;;;;;;;;5039166;28;20025;-76
2021/05/18 06:06:10;;;;;;;3.88;0.90;;;;;;;;;;5039113;28;20021;-76
2021/05/18 06:08:42;;;;;;;1.98;1.00;;;;;;;;;;5038946;28;20036;-76
2021/05/18 06:11:15;;;;;;;3.22;0.98;;;;;;;;;;5021558;28;20112;-76
2021/05/18 06:13:51;;;;;;;2.42;0.80;;;;;;;;;;5038975;28;20029;-76
2021/05/18 06:37:49;;;;;;;5.43;0.93;;;;;;;;;;5038440;28;20327;-76
2021/05/18 06:48:38;;;;;;;2.58;0.60;;;;;;;;;;4977614;28;20031;-76
2021/05/18 06:51:04;;;;;;;1.65;0.50;;;;;;;;;;4961475;28;20031;-76
2021/05/18 06:53:30;;;;;;;2.47;0.70;;;;;;;;;;4977575;28;20488;-76
2021/05/18 06:55:57;;;;;;;2.78;0.73;;;;;;;;;;4977379;28;20046;-76
2021/05/18 07:01:07;;;;;;;1.63;0.60;;;;;;;;;;4977539;28;20034;-76
2021/05/18 07:03:38;;;;;;;3.17;0.60;;;;;;;;;;4977402;28;20365;-76
2021/05/18 07:21:48;;;;;;;2.03;0.80;;;;;;;;;;5135623;27;20406;-77
2021/05/18 07:24:20;;;;;;;1.08;0.52;;;;;;;;;;5135204;28;20061;-76
2021/05/18 07:26:46;;;;;;;2.22;0.40;;;;;;;;;;5116537;28;20298;-76
2021/05/18 07:29:12;;;;;;;4.28;0.50;;;;;;;;;;5116590;28;20037;-76
2021/05/18 07:31:39;;;;;;;1.40;0.50;;;;;;;;;;5135004;28;20163;-76
2021/05/18 07:34:05;;;;;;;3.03;0.50;;;;;;;;;;5135017;28;20031;-76
2021/05/18 07:36:31;;;;;;;2.83;1.33;;;;;;;;;;5135071;28;20031;-77
2021/05/18 07:39:03;;;;;;;6.70;2.47;;;;;;;;;;5134886;28;20126;-77
2021/05/18 07:41:31;;;;;;;6.32;2.40;;;;;;;;;;5134829;28;20405;-77
2021/05/18 07:43:58;;;;;;;1.50;0.70;;;;;;;;;;5116119;28;20069;-78
2021/05/18 07:46:24;;;;;;;7.47;2.13;;;;;;;;;;5135099;28;20016;-77
2021/05/18 08:07:28;;;;;;;4.53;1.83;;;;;;;;;;5134861;28;20379;-78
2021/05/18 08:12:35;;;;;;;3.85;1.73;;;;;;;;;;5134638;28;20028;-78
2021/05/18 08:48:49;;;;;;;9.00;3.17;;;;;;;;;;5120247;28;20069;-76
2021/05/18 10:36:27;;;;;;;2.60;0.40;;;;;;;;;;5117793;28;20028;-76
2021/05/18 10:39:13;;;;;;;1.75;0.73;;;;;;;;;;5117818;28;20066;-77
2021/05/18 10:41:39;;;;;;;0.63;0.30;;;;;;;;;;5117877;28;20039;-76
2021/05/18 10:44:06;;;;;;;4.22;0.85;;;;;;;;;;5116429;28;20034;-76
2021/05/18 10:46:51;;;;;;;1.42;0.30;;;;;;;;;;5117891;28;20020;-76
2021/05/18 10:49:32;;;;;;;3.58;0.50;;;;;;;;;;5116482;28;20043;-77
2021/05/18 10:52:00;;;;;;;4.68;0.40;;;;;;;;;;5117888;28;20061;-76
2021/05/18 10:54:27;;;;;;;2.58;0.30;;;;;;;;;;5116612;28;20035;-76
2021/05/18 10:56:57;;;;;;;3.20;0.43;;;;;;;;;;5117493;28;20027;-76
2021/05/18 10:59:34;;;;;;;4.75;0.60;;;;;;;;;;5117635;28;20024;-76
2021/05/18 11:02:05;;;;;;;3.45;0.32;;;;;;;;;;5117543;28;20023;-76
2021/05/18 11:04:41;;;;;;;1.33;0.25;;;;;;;;;;5117787;28;20035;-76
2021/05/18 11:07:09;;;;;;;0.75;0.22;;;;;;;;;;5117553;28;20026;-76
2021/05/18 11:09:35;;;;;;;1.25;0.30;;;;;;;;;;5117666;28;20031;-76
2021/05/18 11:12:04;;;;;;;4.60;0.70;;;;;;;;;;5116267;28;20020;-76
2021/05/18 11:14:38;;;;;;;2.13;0.52;;;;;;;;;;5117594;28;20026;-76
2021/05/18 11:17:22;;;;;;;2.40;0.40;;;;;;;;;;5116724;28;20026;-76
2021/05/18 11:20:09;;;;;;;2.53;0.70;;;;;;;;;;5095578;28;20037;-76
2021/05/18 11:25:40;;;;;;;2.10;1.10;;;;;;;;;;5097014;28;20089;-77
2021/05/18 11:28:10;;;;;;;3.40;0.93;;;;;;;;;;5096977;28;20073;-77
2021/05/18 11:30:36;;;;;;;4.70;0.77;;;;;;;;;;5095992;28;20020;-77
2021/05/18 11:33:02;;;;;;;0.52;0.30;;;;;;;;;;5096993;28;20028;-77
2021/05/18 11:35:28;;;;;;;1.70;0.30;;;;;;;;;;5078345;28;20044;-77
2021/05/18 11:37:58;;;;;;;1.77;0.40;;;;;;;;;;5095298;28;20063;-77
2021/05/18 11:40:24;;;;;;;7.30;1.63;;;;;;;;;;5096929;28;20098;-77
2021/05/18 11:42:50;;;;;;;1.65;0.40;;;;;;;;;;5096863;28;20020;-77
2021/05/18 11:45:17;;;;;;;1.60;0.43;;;;;;;;;;5096701;28;20024;-77
2021/05/18 11:47:45;;;;;;;0.85;0.43;;;;;;;;;;5096782;28;20062;-77
2021/05/18 11:50:21;;;;;;;0.80;0.47;;;;;;;;;;5096853;28;20032;-77
2021/05/18 11:52:48;;;;;;;2.22;0.90;;;;;;;;;;5095640;28;20038;-77
2021/05/18 11:55:18;;;;;;;1.05;0.40;;;;;;;;;;5095669;28;20035;-77
2021/05/18 11:57:44;;;;;;;10.38;0.60;;;;;;;;;;5099741;28;20021;-77
2021/05/18 12:00:20;;;;;;;1.00;0.93;;;;;;;;;;5100327;28;20065;-77
2021/05/18 12:02:47;;;;;;;2.97;0.40;;;;;;;;;;5100468;28;20095;-77
2021/05/18 12:05:13;;;;;;;1.33;0.32;;;;;;;;;;5098679;28;20032;-77
2021/05/18 12:07:39;;;;;;;2.65;0.25;;;;;;;;;;5100072;28;20070;-77
2021/05/18 12:10:05;;;;;;;0.52;0.40;;;;;;;;;;5100191;28;20035;-77
2021/05/18 12:12:38;;;;;;;3.00;0.35;;;;;;;;;;5100028;28;20040;-77
2021/05/18 12:15:08;;;;;;;3.17;0.60;;;;;;;;;;5100221;28;20024;-77
2021/05/18 12:17:36;;;;;;;2.03;0.50;;;;;;;;;;5100384;28;20051;-78
2021/05/18 12:20:03;;;;;;;3.17;0.43;;;;;;;;;;5098429;28;20124;-77
2021/05/18 12:22:29;;;;;;;2.22;0.30;;;;;;;;;;5099081;28;20012;-77
2021/05/18 12:24:56;;;;;;;1.17;0.22;;;;;;;;;;5099941;28;20302;-77
2021/05/18 12:27:23;;;;;;;4.38;0.82;;;;;;;;;;5100150;28;20100;-77
2021/05/18 12:29:54;;;;;;;2.03;0.22;;;;;;;;;;5099939;28;20425;-76
2021/05/18 12:32:23;;;;;;;3.83;0.50;;;;;;;;;;5100107;28;20020;-75
2021/05/18 12:34:50;;;;;;;1.00;0.28;;;;;;;;;;5100092;28;20028;-76
2021/05/18 12:37:17;;;;;;;4.65;0.30;;;;;;;;;;5099699;28;20028;-76
2021/05/18 12:39:44;;;;;;;0.85;0.20;;;;;;;;;;5098527;28;20039;-76
2021/05/18 12:42:15;;;;;;;3.63;0.30;;;;;;;;;;5099846;28;20342;-76
2021/05/18 12:44:50;;;;;;;9.05;0.82;;;;;;;;;;5099634;28;20022;-76
2021/05/18 12:47:25;;;;;;;3.50;0.70;;;;;;;;;;5099783;28;20024;-76
2021/05/18 12:49:51;;;;;;;5.95;0.68;;;;;;;;;;5098479;28;20043;-76
2021/05/18 12:52:17;;;;;;;0.70;0.20;;;;;;;;;;5099260;28;20020;-76
2021/05/18 12:54:43;;;;;;;1.65;0.30;;;;;;;;;;5099376;28;20077;-76
2021/05/18 12:57:11;;;;;;;2.30;0.30;;;;;;;;;;5099472;28;20032;-76
2021/05/18 12:59:55;;;;;;;0.50;0.28;;;;;;;;;;5099486;28;20030;-76
2021/05/18 13:02:48;;;;;;;2.30;0.60;;;;;;;;;;5099561;28;20313;-76
2021/05/18 13:05:14;;;;;;;6.97;0.90;;;;;;;;;;5095667;28;20051;-77
2021/05/18 13:07:41;;;;;;;0.45;0.22;;;;;;;;;;5099170;28;20028;-77
2021/05/18 13:10:18;;;;;;;2.22;0.60;;;;;;;;;;5099096;28;20334;-77
2021/05/18 13:12:45;;;;;;;9.95;1.13;;;;;;;;;;5099142;28;20024;-76
2021/05/18 13:15:12;;;;;;;1.92;0.40;;;;;;;;;;5099081;28;20020;-76
2021/05/18 13:17:51;;;;;;;5.93;0.93;;;;;;;;;;5098979;28;20028;-76
2021/05/18 13:20:17;;;;;;;5.72;0.40;;;;;;;;;;5098901;28;20127;-76
2021/05/18 13:22:46;;;;;;;0.75;0.20;;;;;;;;;;5098901;28;20047;-77
2021/05/18 13:27:58;;;;;;;0.55;0.10;;;;;;;;;;5098845;28;20025;-76
2021/05/18 13:30:26;;;;;;;1.42;0.63;;;;;;;;;;5098675;28;20024;-77
2021/05/18 13:32:52;;;;;;;4.90;0.52;;;;;;;;;;5097650;28;20068;-76
2021/05/18 13:35:19;;;;;;;1.65;0.95;;;;;;;;;;5098799;28;20027;-76
2021/05/18 13:37:45;;;;;;;2.67;0.70;;;;;;;;;;5098571;28;20381;-77
2021/05/18 13:40:13;;;;;;;3.08;0.82;;;;;;;;;;5098459;28;20082;-76
2021/05/18 13:42:39;;;;;;;0.52;0.30;;;;;;;;;;5098642;28;20409;-76
2021/05/18 13:45:06;;;;;;;4.15;0.40;;;;;;;;;;5098654;28;20028;-77
2021/05/18 13:47:32;;;;;;;3.03;0.40;;;;;;;;;;5098095;28;20320;-76
2021/05/18 13:49:58;;;;;;;3.70;0.30;;;;;;;;;;5098526;28;20043;-77
2021/05/18 13:52:25;;;;;;;6.65;0.93;;;;;;;;;;5098567;28;20028;-77
2021/05/18 13:54:51;;;;;;;3.80;0.40;;;;;;;;;;5098514;28;20334;-77
2021/05/18 13:57:17;;;;;;;3.97;0.45;;;;;;;;;;5097983;28;20360;-77
2021/05/18 13:59:43;;;;;;;10.90;1.10;;;;;;;;;;5098164;28;20024;-77
2021/05/18 14:02:10;;;;;;;1.00;0.32;;;;;;;;;;5098104;28;20016;-77
2021/05/18 14:04:36;;;;;;;3.00;0.40;;;;;;;;;;5098359;28;20028;-77
2021/05/18 14:07:43;;;;;;;2.40;0.85;;;;;;;;;;5098078;28;20449;-77
2021/05/18 14:10:10;;;;;;;4.57;0.40;;;;;;;;;;5097390;28;20047;-77
2021/05/18 14:12:36;;;;;;;1.25;0.43;;;;;;;;;;5097869;28;20020;-77
2021/05/18 14:15:03;;;;;;;3.25;0.90;;;;;;;;;;5098102;28;20078;-77
2021/05/18 14:17:29;;;;;;;7.10;0.85;;;;;;;;;;5097984;28;20068;-77
2021/05/18 14:19:55;;;;;;;11.73;1.10;;;;;;;;;;5097271;28;20043;-77
2021/05/18 14:22:21;;;;;;;3.10;0.90;;;;;;;;;;5096435;28;20032;-77
2021/05/18 14:24:56;;;;;;;1.23;0.40;;;;;;;;;;5097819;28;20556;-77
2021/05/18 14:27:22;;;;;;;2.65;0.80;;;;;;;;;;5097695;28;20425;-77
2021/05/18 14:29:48;;;;;;;1.92;0.90;;;;;;;;;;5097370;28;20036;-77
2021/05/18 14:32:15;;;;;;;2.67;1.33;;;;;;;;;;5097586;28;20028;-77
2021/05/18 14:34:42;;;;;;;2.70;1.00;;;;;;;;;;5097767;28;20032;-77
2021/05/18 14:37:08;;;;;;;0.98;0.70;;;;;;;;;;5097547;28;20035;-77
2021/05/18 14:45:01;;;;;;;3.35;0.60;;;;;;;;;;5097995;28;20034;-77
2021/05/18 14:47:32;;;;;;;2.42;1.15;;;;;;;;;;5097535;28;20044;-77
2021/05/18 14:55:29;;;;;;;3.22;0.60;;;;;;;;;;5097661;28;20093;-77
2021/05/18 14:57:55;;;;;;;2.58;0.88;;;;;;;;;;5097430;28;20020;-77
2021/05/18 15:00:21;;;;;;;2.60;1.10;;;;;;;;;;5097274;28;20028;-77
2021/05/18 15:02:48;;;;;;;3.15;0.50;;;;;;;;;;5097194;28;20020;-77
2021/05/18 15:05:16;;;;;;;3.78;1.50;;;;;;;;;;5095856;28;20631;-77
2021/05/18 15:07:43;;;;;;;2.58;1.20;;;;;;;;;;5097115;28;20025;-77
2021/05/18 15:10:09;;;;;;;3.13;1.20;;;;;;;;;;5097004;28;20413;-77
2021/05/18 15:12:35;;;;;;;3.25;1.15;;;;;;;;;;5097154;28;20029;-77
2021/05/18 15:15:01;;;;;;;2.25;0.60;;;;;;;;;;5097052;28;20020;-77
2021/05/18 15:17:27;;;;;;;0.47;0.30;;;;;;;;;;5097029;28;20337;-77
2021/05/18 15:19:54;;;;;;;2.53;0.82;;;;;;;;;;5096669;28;20040;-77
2021/05/18 15:22:21;;;;;;;3.15;0.40;;;;;;;;;;5095655;28;20032;-77
2021/05/18 15:24:47;;;;;;;1.80;0.32;;;;;;;;;;5095534;28;20024;-77
2021/05/18 15:27:13;;;;;;;1.92;0.85;;;;;;;;;;5097137;28;20047;-77
2021/05/18 15:29:39;;;;;;;5.38;2.50;;;;;;;;;;5095624;28;20048;-77
2021/05/18 15:32:06;;;;;;;7.70;4.93;;;;;;;;;;5099133;28;20299;-77
2021/05/18 15:34:32;;;;;;;3.47;2.20;;;;;;;;;;5101028;28;20095;-77
2021/05/18 15:36:58;;;;;;;3.42;1.23;;;;;;;;;;5101099;28;20024;-77
2021/05/18 15:39:24;;;;;;;0.70;0.30;;;;;;;;;;5100812;28;20402;-77
2021/05/18 15:41:50;;;;;;;2.05;0.40;;;;;;;;;;5100870;28;20142;-76
2021/05/18 15:44:17;;;;;;;2.92;0.40;;;;;;;;;;5101034;28;20021;-76
2021/05/18 15:46:44;;;;;;;2.17;0.40;;;;;;;;;;5100952;28;20113;-76
2021/05/18 15:49:11;;;;;;;1.00;0.30;;;;;;;;;;5099774;28;20020;-76
2021/05/18 15:51:37;;;;;;;7.18;0.35;;;;;;;;;;5100773;28;20394;-77
2021/05/18 15:54:04;;;;;;;3.92;0.40;;;;;;;;;;5100825;28;20107;-77
2021/05/18 15:56:30;;;;;;;3.58;0.82;;;;;;;;;;5100585;28;20390;-77
2021/05/18 15:58:56;;;;;;;1.27;0.20;;;;;;;;;;5100758;28;20027;-76
2021/05/18 16:01:22;;;;;;;0.50;0.30;;;;;;;;;;5100318;28;20021;-76
2021/05/18 16:03:48;;;;;;;0.95;0.20;;;;;;;;;;5100419;28;20060;-76
2021/05/18 16:06:14;;;;;;;3.35;0.30;;;;;;;;;;5098960;28;20119;-76
2021/05/18 16:11:09;;;;;;;3.47;0.60;;;;;;;;;;5100305;28;20035;-76
2021/05/18 16:13:37;;;;;;;0.63;0.20;;;;;;;;;;5100348;28;20020;-76
2021/05/18 16:16:08;;;;;;;1.60;0.45;;;;;;;;;;5100179;28;20035;-77
2021/05/18 16:18:34;;;;;;;0.77;0.20;;;;;;;;;;5098535;28;20446;-77
2021/05/18 16:21:00;;;;;;;1.08;0.25;;;;;;;;;;5099975;28;20048;-77
2021/05/18 16:23:30;;;;;;;2.42;0.40;;;;;;;;;;5100142;28;20425;-77
2021/05/18 16:25:56;;;;;;;3.53;0.22;;;;;;;;;;5099959;28;20020;-77
2021/05/18 16:28:23;;;;;;;1.75;0.30;;;;;;;;;;5100133;28;20028;-77
2021/05/18 16:30:49;;;;;;;4.15;0.30;;;;;;;;;;5098526;28;20032;-77
2021/05/18 16:33:16;;;;;;;2.33;0.57;;;;;;;;;;5098209;28;20055;-76
2021/05/18 16:35:42;;;;;;;1.67;0.32;;;;;;;;;;5100136;28;20024;-76
2021/05/18 16:38:08;;;;;;;4.32;0.30;;;;;;;;;;5099788;28;20463;-76
2021/05/18 16:40:35;;;;;;;5.00;0.30;;;;;;;;;;5099729;28;20405;-77
2021/05/18 16:43:01;;;;;;;5.60;0.40;;;;;;;;;;5099477;28;20024;-75
2021/05/18 16:45:27;;;;;;;0.45;0.22;;;;;;;;;;5099819;28;20022;-75
2021/05/18 16:47:53;;;;;;;2.40;0.30;;;;;;;;;;5099442;28;20027;-75
2021/05/18 16:50:19;;;;;;;3.63;0.40;;;;;;;;;;5099755;28;20042;-75
2021/05/18 16:52:45;;;;;;;3.65;0.50;;;;;;;;;;5099508;28;20028;-75
2021/05/18 16:55:12;;;;;;;1.20;0.43;;;;;;;;;;5099253;28;20031;-75
2021/05/18 16:57:38;;;;;;;1.73;0.40;;;;;;;;;;5099207;28;20028;-75
2021/05/18 17:00:06;;;;;;;1.85;0.50;;;;;;;;;;5099343;28;20058;-75
2021/05/18 17:02:33;;;;;;;3.65;0.30;;;;;;;;;;5099229;28;20020;-75
2021/05/18 17:04:59;;;;;;;0.73;0.30;;;;;;;;;;5099394;28;20406;-76
2021/05/18 17:07:25;;;;;;;3.75;0.30;;;;;;;;;;5099476;28;20095;-75
2021/05/18 17:09:51;;;;;;;2.78;0.32;;;;;;;;;;5099126;28;20366;-75
2021/05/18 17:12:21;;;;;;;5.53;0.30;;;;;;;;;;5098896;28;20024;-75
2021/05/18 17:14:48;;;;;;;1.63;0.28;;;;;;;;;;5099131;28;20055;-75
2021/05/18 17:17:14;;;;;;;0.90;0.70;;;;;;;;;;5097596;28;20036;-76
2021/05/18 17:19:42;;;;;;;1.10;0.45;;;;;;;;;;5098892;28;20067;-75
2021/05/18 17:22:09;;;;;;;1.27;0.25;;;;;;;;;;5098773;28;20035;-75
2021/05/18 17:24:35;;;;;;;2.75;0.50;;;;;;;;;;5098937;28;20024;-75
2021/05/18 17:27:02;;;;;;;1.20;0.50;;;;;;;;;;5098856;28;20020;-75
2021/05/18 17:29:28;;;;;;;1.55;0.50;;;;;;;;;;5098822;28;20061;-74
2021/05/18 17:31:55;;;;;;;0.60;0.50;;;;;;;;;;5098934;28;20016;-75
2021/05/18 17:34:22;;;;;;;3.00;0.50;;;;;;;;;;5097227;28;20036;-75
2021/05/18 17:36:49;;;;;;;1.23;0.60;;;;;;;;;;5097150;28;20077;-75
2021/05/18 17:39:16;;;;;;;2.58;0.55;;;;;;;;;;5098579;28;20378;-75
2021/05/18 17:41:42;;;;;;;4.63;0.47;;;;;;;;;;5098709;28;20058;-75
2021/05/18 17:44:08;;;;;;;0.43;0.30;;;;;;;;;;5098563;28;20024;-75
2021/05/18 17:46:36;;;;;;;3.08;0.90;;;;;;;;;;5098591;28;20031;-75
2021/05/18 17:49:02;;;;;;;0.85;0.50;;;;;;;;;;5098198;28;20318;-75
2021/05/18 17:51:28;;;;;;;3.47;0.30;;;;;;;;;;5098482;28;20067;-76
2021/05/18 17:53:54;;;;;;;0.60;0.45;;;;;;;;;;5097341;28;20051;-75
2021/05/18 17:56:21;;;;;;;2.60;0.73;;;;;;;;;;5098146;28;20310;-75
2021/05/18 17:58:47;;;;;;;1.35;0.80;;;;;;;;;;5098373;28;20314;-75
2021/05/18 18:01:13;;;;;;;3.00;0.50;;;;;;;;;;5098151;28;20406;-74
2021/05/18 18:03:40;;;;;;;4.60;1.17;;;;;;;;;;5096683;28;20055;-75
2021/05/18 18:06:06;;;;;;;7.72;2.10;;;;;;;;;;5098283;28;20062;-75
2021/05/18 18:08:38;;;;;;;1.95;1.40;;;;;;;;;;5098276;28;20020;-77
2021/05/18 18:11:04;;;;;;;3.55;2.00;;;;;;;;;;5098218;28;20032;-74
2021/05/18 18:13:30;;;;;;;5.30;2.60;;;;;;;;;;5111126;28;20111;-74
2021/05/18 18:15:56;;;;;;;4.50;2.10;;;;;;;;;;5118351;28;20028;-74
2021/05/18 18:18:22;;;;;;;23.55;7.47;;;;;;;;;;5116975;28;20024;-74
2021/05/18 18:20:48;;;;;;;27.73;8.57;;;;;;;;;;5112880;28;20052;-75
2021/05/18 18:23:14;;;;;;;36.33;9.65;;;;;;;;;;5100592;28;20042;-75
2021/05/18 18:25:40;;;;;;;19.27;6.15;;;;;;;;;;5117102;28;20020;-76
2021/05/18 18:28:06;;;;;;;13.00;5.00;;;;;;;;;;5116430;28;20023;-75
2021/05/18 18:30:32;;;;;;;13.80;4.68;;;;;;;;;;5116705;28;20042;-75
2021/05/18 18:32:58;;;;;;;10.52;2.38;;;;;;;;;;5114856;28;20050;-75
2021/05/18 18:35:24;;;;;;;3.65;1.60;;;;;;;;;;5117864;28;20027;-75
2021/05/18 18:37:51;;;;;;;4.82;1.45;;;;;;;;;;5118007;28;20073;-75
2021/05/18 18:40:17;;;;;;;5.60;2.25;;;;;;;;;;5107921;28;20036;-74
2021/05/18 18:42:43;;;;;;;12.68;3.05;;;;;;;;;;5115763;28;20041;-75
2021/05/18 18:45:12;;;;;;;13.68;5.40;;;;;;;;;;5099547;28;20035;-74
2021/05/18 18:47:38;;;;;;;10.50;4.60;;;;;;;;;;5097345;28;20028;-74
2021/05/18 18:50:09;;;;;;;17.38;8.07;;;;;;;;;;5100000;28;20417;-78
2021/05/18 18:55:11;;;;;;;26.00;9.55;;;;;;;;;;5097400;28;20032;-76
2021/05/18 18:57:37;;;;;;;28.48;10.10;;;;;;;;;;5097414;28;20024;-76
2021/05/18 19:00:07;;;;;;;26.23;10.00;;;;;;;;;;5096094;28;20039;-76
2021/05/18 19:02:47;;;;;;;31.45;11.27;;;;;;;;;;5097171;28;20069;-76
2021/05/18 19:13:20;;;;;;;28.55;13.77;;;;;;;;;;5055177;28;20036;-76
2021/05/18 19:15:46;;;;;;;32.33;13.25;;;;;;;;;;5054739;28;20032;-76
2021/05/18 19:18:12;;;;;;;42.38;15.35;;;;;;;;;;5038149;28;20032;-76
2021/05/18 19:20:38;;;;;;;34.85;14.50;;;;;;;;;;5037834;28;20044;-76
2021/05/18 19:23:05;;;;;;;35.58;12.27;;;;;;;;;;5054992;28;20021;-76
2021/05/18 19:25:32;;;;;;;29.88;11.65;;;;;;;;;;5054565;28;20040;-76
2021/05/18 19:28:12;;;;;;;20.98;8.48;;;;;;;;;;5054921;28;20052;-76
2021/05/18 19:30:39;;;;;;;17.73;7.03;;;;;;;;;;5037837;28;20044;-76
2021/05/18 19:33:07;;;;;;;12.07;5.90;;;;;;;;;;5054985;28;20037;-76
2021/05/18 19:51:43;;;;;;;13.13;4.55;;;;;;;;;;5015139;28;20037;-76
2021/05/18 19:54:19;;;;;;;9.70;4.22;;;;;;;;;;4998611;28;20038;-76
2021/05/18 20:08:11;;;;;;;12.13;4.88;;;;;;;;;;5015014;28;20033;-76
2021/05/18 20:11:06;;;;;;;14.15;6.10;;;;;;;;;;4975818;28;20074;-76
2021/05/18 20:21:47;;;;;;;9.98;4.43;;;;;;;;;;5057590;28;20465;-76
2021/05/18 20:24:13;;;;;;;12.48;4.63;;;;;;;;;;5058052;28;20029;-76
2021/05/18 20:26:39;;;;;;;7.32;2.92;;;;;;;;;;5057931;28;20025;-76
2021/05/18 20:29:05;;;;;;;5.78;2.10;;;;;;;;;;5057884;28;20036;-76
2021/05/18 20:31:32;;;;;;;7.03;1.95;;;;;;;;;;5057890;28;20090;-76
2021/05/18 20:34:04;;;;;;;5.47;1.90;;;;;;;;;;5057911;28;20041;-76
2021/05/18 20:39:16;;;;;;;5.03;2.15;;;;;;;;;;5058064;28;20343;-76
2021/05/18 20:41:44;;;;;;;3.85;1.92;;;;;;;;;;5061814;28;20055;-76
2021/05/18 20:44:11;;;;;;;4.40;2.30;;;;;;;;;;5098515;28;20036;-76
2021/05/18 20:46:37;;;;;;;7.18;2.10;;;;;;;;;;5099696;28;20020;-76
2021/05/18 20:49:03;;;;;;;6.82;2.72;;;;;;;;;;5099536;28;20020;-74
2021/05/18 20:51:30;;;;;;;8.45;2.47;;;;;;;;;;5111003;27;20099;-77
2021/05/18 20:53:56;;;;;;;10.05;2.15;;;;;;;;;;5117724;28;20130;-87
2021/05/18 20:56:23;;;;;;;8.18;2.35;;;;;;;;;;5120577;28;20466;-90
2021/05/18 20:58:49;;;;;;;5.53;2.75;;;;;;;;;;5120738;28;20077;-93
2021/05/18 21:01:18;;;;;;;4.85;2.38;;;;;;;;;;5120678;28;20099;-95